createdAt,value
2022-11-29T00:01:27.092Z,8.73
2022-11-29T00:03:57.028Z,8.50
2022-11-29T00:06:30.146Z,8.32
2022-11-29T00:09:03.469Z,7.25
2022-11-29T00:11:51.793Z,8.15
2022-11-29T00:14:22.660Z,8.38
2022-11-29T00:16:54.943Z,8.13
2022-11-29T00:19:22.782Z,7.47
2022-11-29T00:21:50.138Z,6.90
2022-11-29T00:24:17.578Z,8.68
2022-11-29T00:26:44.764Z,9.20
2022-11-29T00:29:13.116Z,10.95
2022-11-29T00:31:41.189Z,11.32
2022-11-29T00:34:10.182Z,11.68
2022-11-29T00:36:37.601Z,9.15
2022-11-29T00:39:05.783Z,9.85
2022-11-29T00:41:33.248Z,11.95
2022-11-29T00:44:00.486Z,9.77
2022-11-29T00:46:27.832Z,9.75
2022-11-29T00:48:54.932Z,8.80
2022-11-29T00:51:24.082Z,10.15
2022-11-29T00:53:52.668Z,10.13
2022-11-29T00:56:21.560Z,9.18
2022-11-29T00:58:49.439Z,10.95
2022-11-29T01:01:16.981Z,8.82
2022-11-29T01:03:55.932Z,8.23
2022-11-29T01:06:22.975Z,7.18
2022-11-29T01:08:50.763Z,7.50
2022-11-29T01:11:26.422Z,6.93
2022-11-29T01:13:57.543Z,7.78
2022-11-29T01:16:25.545Z,6.25
2022-11-29T01:18:55.295Z,7.65
2022-11-29T01:21:26.229Z,8.40
2022-11-29T01:23:54.207Z,7.70
2022-11-29T01:26:24.267Z,7.88
2022-11-29T01:28:56.357Z,6.97
2022-11-29T01:31:31.816Z,7.22
2022-11-29T01:34:03.312Z,6.20
2022-11-29T01:36:30.782Z,7.30
2022-11-29T01:38:59.970Z,5.88
2022-11-29T01:41:29.321Z,5.13
2022-11-29T01:44:08.089Z,6.35
2022-11-29T01:46:38.789Z,7.20
2022-11-29T01:49:17.559Z,6.88
2022-11-29T01:52:01.394Z,8.07
2022-11-29T01:54:30.179Z,7.05
2022-11-29T01:56:59.007Z,6.30
2022-11-29T01:59:32.164Z,6.28
2022-11-29T02:02:06.910Z,6.15
2022-11-29T02:04:35.727Z,6.72
2022-11-29T02:07:02.941Z,6.85
2022-11-29T02:09:30.329Z,6.07
2022-11-29T02:12:17.715Z,7.22
2022-11-29T02:15:16.261Z,5.47
2022-11-29T02:17:49.013Z,7.68
2022-11-29T02:23:24.821Z,6.38
2022-11-29T02:25:54.823Z,6.30
2022-11-29T02:28:49.913Z,7.28
2022-11-29T02:31:51.674Z,6.43
2022-11-29T02:34:55.789Z,5.18
2022-11-29T02:37:41.135Z,5.05
2022-11-29T02:40:37.423Z,5.13
2022-11-29T02:43:29.323Z,6.30
2022-11-29T02:46:21.610Z,6.40
2022-11-29T02:49:00.911Z,5.65
2022-11-29T02:51:34.970Z,5.38
2022-11-29T02:54:07.669Z,5.15
2022-11-29T02:57:09.888Z,5.20
2022-11-29T02:59:51.794Z,4.85
2022-11-29T03:02:52.782Z,4.73
2022-11-29T03:05:55.252Z,4.60
2022-11-29T03:08:46.382Z,5.05
2022-11-29T03:11:33.110Z,6.55
2022-11-29T03:14:29.222Z,8.88
2022-11-29T03:17:31.028Z,7.25
2022-11-29T03:20:07.760Z,9.23
2022-11-29T03:23:07.769Z,7.97
2022-11-29T03:25:43.611Z,8.52
2022-11-29T03:28:24.431Z,9.50
2022-11-29T03:31:26.532Z,8.23
2022-11-29T03:34:02.213Z,9.57
2022-11-29T03:36:58.051Z,9.05
2022-11-29T03:39:44.963Z,9.45
2022-11-29T03:42:25.559Z,8.00
2022-11-29T03:45:12.869Z,6.97
2022-11-29T03:48:00.108Z,6.68
2022-11-29T03:50:43.683Z,6.72
2022-11-29T03:53:16.455Z,7.28
2022-11-29T03:55:56.489Z,6.15
2022-11-29T03:58:49.865Z,7.47
2022-11-29T04:01:24.712Z,8.85
2022-11-29T04:04:22.021Z,8.95
2022-11-29T04:06:55.131Z,7.35
2022-11-29T04:09:41.203Z,8.10
2022-11-29T04:12:50.441Z,6.45
2022-11-29T04:15:24.063Z,6.40
2022-11-29T04:18:14.433Z,5.53
2022-11-29T04:21:14.832Z,6.70
2022-11-29T04:24:02.957Z,6.18
2022-11-29T04:27:06.878Z,6.68
2022-11-29T04:30:03.797Z,5.47
2022-11-29T04:32:42.504Z,5.65
2022-11-29T04:35:32.328Z,4.28
2022-11-29T04:38:26.359Z,5.68
2022-11-29T04:41:16.072Z,4.97
2022-11-29T04:44:27.863Z,5.05
2022-11-29T04:47:03.676Z,5.25
2022-11-29T04:49:51.863Z,5.75
2022-11-29T04:52:24.306Z,5.35
2022-11-29T04:55:27.839Z,5.88
2022-11-29T04:58:32.154Z,4.65
2022-11-29T05:01:15.480Z,4.57
2022-11-29T05:04:22.983Z,4.03
2022-11-29T05:07:05.864Z,4.85
2022-11-29T05:12:29.894Z,3.28
2022-11-29T05:15:15.076Z,4.10
2022-11-29T05:18:03.410Z,3.85
2022-11-29T05:20:55.199Z,5.15
2022-11-29T05:23:50.200Z,4.43
2022-11-29T05:26:32.629Z,4.20
2022-11-29T05:29:10.103Z,3.90
2022-11-29T05:31:39.320Z,4.82
2022-11-29T05:34:30.252Z,5.80
2022-11-29T05:37:21.883Z,4.80
2022-11-29T05:40:03.687Z,5.68
2022-11-29T05:43:04.066Z,5.22
2022-11-29T05:45:47.795Z,6.97
2022-11-29T05:48:52.047Z,6.90
2022-11-29T05:51:37.019Z,6.05
2022-11-29T05:54:25.559Z,5.07
2022-11-29T05:57:34.110Z,5.45
2022-11-29T06:00:04.228Z,5.90
2022-11-29T06:03:03.985Z,5.82
2022-11-29T06:05:36.549Z,6.82
2022-11-29T06:08:43.346Z,7.97
2022-11-29T06:11:42.392Z,8.73
2022-11-29T06:14:22.839Z,7.15
2022-11-29T06:17:10.673Z,8.07
2022-11-29T06:19:56.302Z,8.30
2022-11-29T06:22:35.765Z,7.25
2022-11-29T06:25:24.174Z,11.57
2022-11-29T06:28:04.446Z,11.57
2022-11-29T06:30:49.208Z,9.23
2022-11-29T06:33:28.991Z,10.30
2022-11-29T06:36:28.120Z,10.95
2022-11-29T06:38:55.654Z,9.98
2022-11-29T06:41:27.015Z,8.50
2022-11-29T06:43:54.688Z,9.38
2022-11-29T06:46:24.390Z,11.05
2022-11-29T06:49:04.141Z,10.15
2022-11-29T06:51:57.334Z,8.50
2022-11-29T06:54:58.651Z,8.70
2022-11-29T06:57:46.818Z,6.35
2022-11-29T07:00:23.663Z,4.88
2022-11-29T07:03:12.501Z,6.15
2022-11-29T07:05:41.014Z,4.38
2022-11-29T07:08:22.693Z,4.47
2022-11-29T07:10:56.640Z,5.10
2022-11-29T07:13:24.195Z,4.90
2022-11-29T07:16:11.408Z,6.10
2022-11-29T07:19:04.675Z,5.63
2022-11-29T07:22:07.656Z,4.25
2022-11-29T07:25:19.656Z,4.47
2022-11-29T07:28:03.365Z,4.20
2022-11-29T07:30:50.670Z,5.47
2022-11-29T07:33:42.079Z,4.13
2022-11-29T07:36:12.069Z,6.45
2022-11-29T07:39:18.019Z,7.38
2022-11-29T07:42:03.947Z,8.70
2022-11-29T07:44:46.950Z,9.73
2022-11-29T07:47:14.381Z,8.55
2022-11-29T07:49:41.633Z,8.52
2022-11-29T07:52:14.921Z,8.93
2022-11-29T07:54:42.711Z,6.93
2022-11-29T07:57:09.977Z,6.80
2022-11-29T07:59:39.679Z,6.70
2022-11-29T08:02:11.686Z,6.53
2022-11-29T08:04:44.700Z,5.47
2022-11-29T08:07:12.578Z,4.55
2022-11-29T08:09:39.818Z,5.22
2022-11-29T08:12:07.168Z,5.60
2022-11-29T08:14:35.606Z,5.07
2022-11-29T08:17:02.614Z,4.30
2022-11-29T08:19:29.760Z,4.85
2022-11-29T08:21:56.863Z,3.80
2022-11-29T08:24:23.988Z,4.68
2022-11-29T08:26:54.161Z,3.83
2022-11-29T08:29:21.421Z,4.55
2022-11-29T08:31:56.202Z,6.00
2022-11-29T08:34:24.421Z,6.47
2022-11-29T08:36:54.775Z,4.63
2022-11-29T08:39:24.249Z,6.00
2022-11-29T08:41:53.564Z,4.75
2022-11-29T08:44:20.603Z,5.00
2022-11-29T08:47:06.082Z,4.97
2022-11-29T08:49:33.347Z,6.70
2022-11-29T08:52:32.640Z,6.20
2022-11-29T08:55:03.165Z,4.40
2022-11-29T08:57:39.859Z,5.25
2022-11-29T09:00:08.428Z,6.28
2022-11-29T09:02:36.702Z,6.28
2022-11-29T09:05:05.400Z,6.70
2022-11-29T09:07:33.325Z,4.68
2022-11-29T09:10:05.187Z,5.20
2022-11-29T09:12:35.922Z,5.38
2022-11-29T09:15:05.545Z,6.30
2022-11-29T09:17:32.914Z,6.15
2022-11-29T09:20:00.386Z,7.82
2022-11-29T09:22:27.519Z,6.63
2022-11-29T09:24:54.911Z,6.63
2022-11-29T09:27:24.896Z,7.38
2022-11-29T09:29:51.995Z,6.07
2022-11-29T09:32:19.061Z,6.63
2022-11-29T09:34:46.474Z,7.20
2022-11-29T09:37:16.398Z,7.22
2022-11-29T09:39:43.826Z,7.22
2022-11-29T09:42:19.562Z,6.85
2022-11-29T09:45:09.813Z,6.00
2022-11-29T09:47:51.863Z,5.07
2022-11-29T09:50:43.221Z,4.25
2022-11-29T09:53:22.169Z,4.72
2022-11-29T09:56:01.234Z,6.78
2022-11-29T09:58:50.551Z,6.25
2022-11-29T10:01:23.212Z,4.70
2022-11-29T10:06:32.760Z,6.18
2022-11-29T10:09:04.798Z,4.93
2022-11-29T10:11:41.536Z,5.45
2022-11-29T10:14:20.606Z,4.07
2022-11-29T10:16:59.655Z,4.72
2022-11-29T10:19:43.308Z,3.67
2022-11-29T10:22:15.918Z,3.65
2022-11-29T10:27:19.610Z,3.47
2022-11-29T10:29:50.442Z,3.47
2022-11-29T10:32:21.418Z,3.80
2022-11-29T10:34:50.262Z,3.85
2022-11-29T10:37:23.357Z,4.22
2022-11-29T10:39:54.575Z,2.58
2022-11-29T10:42:43.182Z,2.88
2022-11-29T10:45:24.685Z,2.53
2022-11-29T10:47:54.153Z,3.42
2022-11-29T10:50:27.575Z,3.55
2022-11-29T10:53:00.234Z,2.90
2022-11-29T10:55:31.542Z,3.83
2022-11-29T10:58:15.417Z,2.72
2022-11-29T11:01:00.215Z,4.55
2022-11-29T11:03:52.962Z,4.65
2022-11-29T11:06:25.604Z,6.90
2022-11-29T11:09:11.352Z,5.45
2022-11-29T11:11:41.103Z,7.13
2022-11-29T11:14:37.691Z,6.18
2022-11-29T11:17:27.752Z,7.40
2022-11-29T11:19:56.245Z,5.38
2022-11-29T11:22:25.395Z,4.18
2022-11-29T11:25:03.595Z,4.47
2022-11-29T11:27:37.345Z,4.18
2022-11-29T11:30:18.416Z,5.32
2022-11-29T11:33:16.443Z,4.30
2022-11-29T11:36:19.243Z,3.60
2022-11-29T11:39:27.904Z,2.80
2022-11-29T11:42:17.787Z,3.50
2022-11-29T11:44:52.971Z,2.95
2022-11-29T11:47:29.168Z,3.38
2022-11-29T11:50:05.017Z,3.28
2022-11-29T11:52:56.565Z,3.30
2022-11-29T11:55:36.765Z,2.85
2022-11-29T11:58:17.369Z,3.92
2022-11-29T12:01:05.016Z,3.97
2022-11-29T12:03:56.420Z,5.45
2022-11-29T12:10:08.914Z,6.63
2022-11-29T12:12:46.872Z,5.97
2022-11-29T12:15:34.123Z,5.68
2022-11-29T12:18:21.298Z,5.60
2022-11-29T12:20:56.018Z,4.78
2022-11-29T12:23:28.875Z,6.38
2022-11-29T12:26:06.706Z,5.80
2022-11-29T12:28:38.331Z,5.40
2022-11-29T12:31:11.936Z,5.03
2022-11-29T12:33:59.576Z,3.42
2022-11-29T12:36:35.525Z,2.92
2022-11-29T12:39:23.967Z,2.65
2022-11-29T12:41:54.316Z,3.65
2022-11-29T12:44:39.480Z,6.97
2022-11-29T12:47:36.863Z,6.22
2022-11-29T12:50:33.764Z,7.22
2022-11-29T12:53:09.052Z,6.47
2022-11-29T12:56:04.611Z,5.88
2022-11-29T12:59:07.640Z,5.90
2022-11-29T13:01:47.256Z,4.10
2022-11-29T13:04:45.376Z,4.07
2022-11-29T13:07:39.511Z,4.05
2022-11-29T13:10:44.223Z,3.40
2022-11-29T13:13:32.449Z,4.75
2022-11-29T13:16:14.687Z,4.68
2022-11-29T13:19:08.812Z,5.28
2022-11-29T13:21:46.557Z,4.47
2022-11-29T13:24:27.684Z,3.90
2022-11-29T13:26:56.554Z,3.63
2022-11-29T13:29:24.500Z,3.78
2022-11-29T13:31:56.686Z,4.85
2022-11-29T13:34:36.638Z,6.05
2022-11-29T13:37:35.716Z,5.18
2022-11-29T13:40:46.924Z,5.18
2022-11-29T13:46:13.888Z,3.53
2022-11-29T13:48:48.771Z,3.35
2022-11-29T13:51:40.790Z,3.38
2022-11-29T13:54:30.988Z,3.30
2022-11-29T13:57:05.565Z,2.70
2022-11-29T13:59:36.243Z,2.40
2022-11-29T14:02:04.760Z,3.92
2022-11-29T14:04:38.705Z,3.50
2022-11-29T14:07:19.850Z,3.05
2022-11-29T14:10:00.367Z,3.10
2022-11-29T14:12:27.590Z,2.88
2022-11-29T14:15:03.153Z,3.38
2022-11-29T14:17:53.687Z,4.70
2022-11-29T14:20:23.689Z,4.65
2022-11-29T14:24:05.424Z,4.68
2022-11-29T14:29:49.385Z,3.55
2022-11-29T14:33:00.716Z,4.20
2022-11-29T14:35:55.827Z,6.55
2022-11-29T14:38:42.287Z,5.18
2022-11-29T14:41:47.834Z,4.50
2022-11-29T14:44:26.179Z,4.13
2022-11-29T14:47:37.387Z,4.90
2022-11-29T14:50:10.529Z,6.28
2022-11-29T14:52:49.962Z,6.13
2022-11-29T14:55:19.818Z,6.75
2022-11-29T14:58:04.180Z,5.57
2022-11-29T15:00:44.519Z,4.38
2022-11-29T15:03:43.020Z,5.30
2022-11-29T15:06:26.558Z,4.95
2022-11-29T15:09:04.871Z,5.22
2022-11-29T15:11:48.138Z,5.55
2022-11-29T15:14:59.208Z,7.82
2022-11-29T15:18:01.199Z,9.48
2022-11-29T15:21:13.945Z,9.40
2022-11-29T15:23:44.295Z,9.88
2022-11-29T15:26:19.866Z,9.38
2022-11-29T15:29:14.912Z,9.80
2022-11-29T15:31:48.680Z,9.98
2022-11-29T15:34:55.997Z,11.20
2022-11-29T15:37:44.738Z,10.77
2022-11-29T15:40:19.095Z,10.30
2022-11-29T15:42:58.140Z,10.02
2022-11-29T15:45:36.637Z,9.95
2022-11-29T15:48:19.456Z,10.27
2022-11-29T15:51:04.590Z,8.35
2022-11-29T15:53:49.959Z,7.93
2022-11-29T15:56:26.535Z,10.07
2022-11-29T15:59:05.609Z,10.43
2022-11-29T16:01:37.147Z,10.93
2022-11-29T16:04:04.751Z,9.38
2022-11-29T16:06:43.856Z,10.18
2022-11-29T16:09:20.247Z,8.95
2022-11-29T16:11:53.109Z,9.75
2022-11-29T16:14:25.838Z,10.55
2022-11-29T16:17:00.686Z,9.57
2022-11-29T16:19:39.335Z,11.73
2022-11-29T16:22:13.509Z,10.20
2022-11-29T16:25:09.390Z,11.52
2022-11-29T16:27:36.919Z,11.80
2022-11-29T16:30:05.446Z,11.98
2022-11-29T16:32:43.195Z,12.35
2022-11-29T16:36:03.764Z,11.05
2022-11-29T16:38:35.898Z,11.48
2022-11-29T16:41:19.826Z,11.90
2022-11-29T16:49:18.052Z,11.55
2022-11-29T16:51:59.242Z,9.65
2022-11-29T16:54:50.604Z,9.80
2022-11-29T16:57:24.515Z,10.45
2022-11-29T17:00:09.837Z,10.38
2022-11-29T17:02:37.121Z,11.30
2022-11-29T17:05:09.870Z,11.65
2022-11-29T17:07:40.414Z,13.35
2022-11-29T17:10:15.458Z,15.23
2022-11-29T17:12:48.216Z,13.25
2022-11-29T17:15:17.374Z,15.07
2022-11-29T17:17:48.655Z,14.07
2022-11-29T17:20:18.820Z,16.13
2022-11-29T17:22:48.296Z,16.45
2022-11-29T17:25:15.639Z,15.55
2022-11-29T17:27:42.992Z,14.70
2022-11-29T17:30:11.432Z,14.50
2022-11-29T17:32:38.657Z,12.82
2022-11-29T17:35:06.093Z,11.52
2022-11-29T17:37:33.122Z,12.77
2022-11-29T17:40:09.739Z,11.80
2022-11-29T17:42:38.193Z,10.00
2022-11-29T17:45:05.774Z,10.77
2022-11-29T17:47:33.540Z,9.73
2022-11-29T17:50:03.324Z,8.10
2022-11-29T17:52:30.458Z,9.27
2022-11-29T17:55:23.799Z,7.03
2022-11-29T17:58:14.876Z,7.63
2022-11-29T18:00:42.095Z,7.82
2022-11-29T18:03:22.081Z,8.68
2022-11-29T18:06:13.699Z,7.13
2022-11-29T18:09:11.435Z,6.03
2022-11-29T18:11:55.454Z,8.05
2022-11-29T18:14:54.178Z,7.88
2022-11-29T18:21:33.055Z,7.43
2022-11-29T18:48:52.020Z,11.02
2022-11-29T18:52:16.742Z,10.13
2022-11-29T18:59:35.275Z,8.25
2022-11-29T19:03:06.417Z,8.32
2022-11-29T19:06:00.425Z,7.70
2022-11-29T19:08:35.498Z,10.07
2022-11-29T19:11:15.769Z,8.65
2022-11-29T19:14:04.706Z,9.25
2022-11-29T19:19:32.699Z,8.98
2022-11-29T19:21:21.527Z,8.88
2022-11-29T19:24:18.795Z,8.68
2022-11-29T19:27:00.018Z,7.68
2022-11-29T19:29:28.544Z,7.40
2022-11-29T19:31:55.696Z,7.47
2022-11-29T19:34:22.814Z,8.50
2022-11-29T19:36:49.698Z,7.90
2022-11-29T19:39:17.745Z,8.60
2022-11-29T19:41:47.398Z,8.65
2022-11-29T19:44:16.406Z,8.80
2022-11-29T19:47:11.952Z,9.13
2022-11-29T19:49:46.137Z,10.18
2022-11-29T20:16:51.012Z,7.97
2022-11-29T20:19:11.143Z,8.75
2022-11-29T20:34:54.387Z,6.65
2022-11-29T20:37:53.172Z,6.45
2022-11-29T20:40:49.991Z,7.13
2022-11-29T20:43:49.346Z,5.53
2022-11-29T20:54:28.886Z,4.28
2022-11-29T21:01:16.991Z,4.40
2022-11-29T21:07:41.024Z,4.10
2022-11-29T21:10:08.981Z,7.07
2022-11-29T21:12:36.553Z,8.32
2022-11-29T21:15:04.365Z,7.05
2022-11-29T21:17:33.657Z,6.72
2022-11-29T21:20:01.884Z,6.22
2022-11-29T21:22:43.940Z,6.80
2022-11-29T21:25:23.071Z,7.00
2022-11-29T21:27:53.026Z,5.72
2022-11-29T21:30:22.598Z,5.40
2022-11-29T21:32:57.970Z,4.75
2022-11-29T21:35:25.297Z,4.50
2022-11-29T21:37:56.013Z,4.15
2022-11-29T21:40:27.413Z,3.88
2022-11-29T21:42:54.476Z,3.95
2022-11-29T21:45:21.808Z,4.28
2022-11-29T21:48:00.489Z,4.53
2022-11-29T21:50:28.831Z,6.03
2022-11-29T21:53:01.070Z,4.22
2022-11-29T21:56:06.766Z,5.07
2022-11-29T21:59:09.934Z,5.40
2022-11-29T22:01:39.716Z,6.03
2022-11-29T22:04:07.078Z,6.47
2022-11-29T22:06:34.249Z,5.05
2022-11-29T22:09:01.352Z,4.70
2022-11-29T22:11:31.513Z,4.68
2022-11-29T22:14:16.118Z,4.07
2022-11-29T22:16:50.781Z,4.93
2022-11-29T22:19:27.294Z,4.07
2022-11-29T22:21:57.327Z,4.75
2022-11-29T22:24:27.300Z,4.75
2022-11-29T22:26:54.901Z,4.75
2022-11-29T22:29:23.076Z,5.22
2022-11-29T22:31:55.975Z,5.80
2022-11-29T22:34:25.380Z,5.90
2022-11-29T22:36:55.584Z,5.70
2022-11-29T22:39:22.985Z,5.32
2022-11-29T22:41:54.198Z,7.75
2022-11-29T22:44:23.707Z,5.88
2022-11-29T22:46:51.057Z,6.30
2022-11-29T22:49:21.021Z,6.43
2022-11-29T22:51:48.669Z,6.63
2022-11-29T22:54:16.632Z,6.88
2022-11-29T22:56:45.242Z,5.72
2022-11-29T22:59:12.952Z,6.53
2022-11-29T23:01:41.620Z,6.45
2022-11-29T23:04:12.373Z,6.30
2022-11-29T23:06:43.377Z,5.60
2022-11-29T23:09:21.687Z,7.22
2022-11-29T23:11:54.035Z,7.07
2022-11-29T23:14:24.622Z,6.57
2022-11-29T23:16:52.084Z,6.93
2022-11-29T23:19:24.993Z,6.30
2022-11-29T23:22:06.213Z,6.22
2022-11-29T23:24:43.445Z,5.72
2022-11-29T23:27:11.999Z,5.55
2022-11-29T23:29:46.533Z,5.72
2022-11-29T23:32:24.686Z,5.90
2022-11-29T23:34:54.562Z,4.70
2022-11-29T23:37:26.967Z,4.95
2022-11-29T23:40:08.580Z,4.65
2022-11-29T23:42:45.079Z,4.95
2022-11-29T23:45:14.427Z,4.97
2022-11-29T23:47:43.931Z,5.07
2022-11-29T23:50:11.874Z,5.00
2022-11-29T23:52:38.952Z,5.13
2022-11-29T23:55:06.559Z,4.80
2022-11-29T23:57:33.527Z,4.10
